createdAt,value
2019-04-06T00:04:23.025Z,159.13
2019-04-06T00:09:28.248Z,146.67
2019-04-06T00:14:33.749Z,193.07
2019-04-06T00:19:38.956Z,159.07
2019-04-06T00:24:44.141Z,163.07
2019-04-06T00:29:49.770Z,154.47
2019-04-06T00:34:54.931Z,186.87
2019-04-06T00:40:00.101Z,170.07
2019-04-06T00:45:05.649Z,171.30
2019-04-06T00:50:11.308Z,170.10
2019-04-06T00:55:16.859Z,207.63
2019-04-06T01:00:22.944Z,172.93
2019-04-06T01:05:28.546Z,176.90
2019-04-06T01:10:33.719Z,206.47
2019-04-06T01:15:38.885Z,244.47
2019-04-06T01:20:44.943Z,287.68
2019-04-06T01:25:50.176Z,281.30
2019-04-06T01:30:55.359Z,317.03
2019-04-06T01:36:00.965Z,326.63
2019-04-06T01:41:07.198Z,310.80
2019-04-06T01:46:12.352Z,256.03
2019-04-06T01:51:17.519Z,329.80
2019-04-06T01:56:22.765Z,329.52
2019-04-06T02:01:47.244Z,294.40
2019-04-06T02:06:52.419Z,307.23
2019-04-06T02:11:58.440Z,229.00
2019-04-06T02:17:04.008Z,304.10
2019-04-06T02:22:09.159Z,391.37
2019-04-06T02:27:14.333Z,398.47
2019-04-06T02:32:44.567Z,517.40
2019-04-06T02:38:10.509Z,398.20
2019-04-06T02:43:18.742Z,375.57
2019-04-06T02:48:24.236Z,361.87
2019-04-06T02:53:29.403Z,240.27
2019-04-06T02:58:34.701Z,284.40
2019-04-06T03:03:39.902Z,310.90
2019-04-06T03:08:45.048Z,245.73
2019-04-06T03:13:50.249Z,271.90
2019-04-06T03:18:55.587Z,241.03
2019-04-06T03:24:00.791Z,313.80
2019-04-06T03:29:05.980Z,261.73
2019-04-06T03:34:12.295Z,348.77
2019-04-06T03:39:18.162Z,158.73
2019-04-06T03:44:23.465Z,125.83
2019-04-06T03:49:28.674Z,181.83
2019-04-06T03:54:34.230Z,127.40
2019-04-06T03:59:39.619Z,149.93
2019-04-06T04:04:45.401Z,163.73
2019-04-06T04:09:50.601Z,167.93
2019-04-06T04:14:56.232Z,206.53
2019-04-06T04:20:02.244Z,134.43
2019-04-06T04:25:08.140Z,148.93
2019-04-06T04:30:15.376Z,189.60
2019-04-06T04:35:21.792Z,134.13
2019-04-06T04:40:28.089Z,169.70
2019-04-06T04:45:34.531Z,162.70
2019-04-06T04:50:42.002Z,199.03
2019-04-06T04:55:48.859Z,205.40
2019-04-06T05:00:55.348Z,137.40
2019-04-06T05:06:01.898Z,113.47
2019-04-06T05:11:09.063Z,127.30
2019-04-06T05:16:15.551Z,148.33
2019-04-06T05:21:21.140Z,200.20
2019-04-06T05:26:36.620Z,456.60
2019-04-06T05:31:33.411Z,295.40
2019-04-06T05:36:39.588Z,507.27
2019-04-06T05:41:44.825Z,373.63
2019-04-06T05:46:50.021Z,193.23
2019-04-06T05:51:55.501Z,342.80
2019-04-06T05:57:02.176Z,568.03
2019-04-06T06:02:08.009Z,245.77
2019-04-06T06:07:14.532Z,244.67
2019-04-06T06:12:20.183Z,147.25
2019-04-06T06:17:25.582Z,120.67
2019-04-06T06:22:30.813Z,188.97
2019-04-06T06:27:36.146Z,162.00
2019-04-06T06:32:41.708Z,220.90
2019-04-06T06:37:47.419Z,189.43
2019-04-06T06:42:53.213Z,117.67
2019-04-06T06:47:58.910Z,147.37
2019-04-06T06:53:04.346Z,136.68
2019-04-06T06:58:09.907Z,178.03
2019-04-06T07:03:15.111Z,153.87
2019-04-06T07:08:20.656Z,79.50
2019-04-06T07:13:25.951Z,66.60
2019-04-06T07:18:31.274Z,63.00
2019-04-06T07:23:37.349Z,52.67
2019-04-06T07:28:44.002Z,52.78
2019-04-06T07:33:49.556Z,50.25
2019-04-06T07:38:55.015Z,52.13
2019-04-06T07:44:00.318Z,51.95
2019-04-06T07:49:09.335Z,45.07
2019-04-06T07:54:13.818Z,48.02
2019-04-06T07:59:19.362Z,47.60
2019-04-06T08:04:25.482Z,52.85
2019-04-06T08:09:30.671Z,61.10
2019-04-06T08:14:35.946Z,72.35
2019-04-06T08:19:41.463Z,52.05
2019-04-06T08:24:46.789Z,46.02
2019-04-06T08:29:52.504Z,43.80
2019-04-06T08:34:57.886Z,44.37
2019-04-06T08:40:03.442Z,44.47
2019-04-06T08:45:09.047Z,43.10
2019-04-06T08:50:14.729Z,46.73
2019-04-06T08:55:20.310Z,46.50
2019-04-06T09:00:27.312Z,44.37
2019-04-06T09:05:32.634Z,49.63
2019-04-06T09:10:37.899Z,43.55
2019-04-06T09:15:43.348Z,39.13
2019-04-06T09:20:49.957Z,38.37
2019-04-06T09:25:55.417Z,36.47
2019-04-06T09:31:01.102Z,38.95
2019-04-06T09:36:07.274Z,32.03
2019-04-06T09:41:13.231Z,35.15
2019-04-06T09:46:29.530Z,33.33
2019-04-06T09:52:04.655Z,31.05
2019-04-06T09:57:28.448Z,33.58
2019-04-06T10:02:44.997Z,30.48
2019-04-06T10:08:02.748Z,34.05
2019-04-06T10:13:25.630Z,34.18
2019-04-06T10:18:53.770Z,36.93
2019-04-06T10:24:26.927Z,40.90
2019-04-06T10:29:54.257Z,37.80
2019-04-06T10:35:11.171Z,38.17
2019-04-06T10:40:45.130Z,41.65
2019-04-06T10:46:10.078Z,37.45
2019-04-06T10:51:34.794Z,38.63
2019-04-06T10:56:58.208Z,38.10
2019-04-06T11:02:25.688Z,41.50
2019-04-06T11:07:39.960Z,39.75
2019-04-06T11:13:05.844Z,48.30
2019-04-06T11:18:42.818Z,45.80
2019-04-06T11:24:19.628Z,32.83
2019-04-06T11:29:43.919Z,32.05
2019-04-06T11:35:16.035Z,29.85
2019-04-06T11:40:39.741Z,33.23
2019-04-06T11:45:56.498Z,28.20
2019-04-06T11:51:15.567Z,24.85
2019-04-06T11:56:43.096Z,25.45
2019-04-06T12:02:07.661Z,27.37
2019-04-06T12:07:31.891Z,32.38
2019-04-06T12:12:46.020Z,24.15
2019-04-06T12:18:11.562Z,23.10
2019-04-06T12:23:27.397Z,26.17
2019-04-06T12:28:41.780Z,24.20
2019-04-06T12:33:59.215Z,29.48
2019-04-06T12:39:28.400Z,23.10
2019-04-06T12:44:52.155Z,26.37
2019-04-06T12:50:20.742Z,25.72
2019-04-06T12:55:45.061Z,24.05
2019-04-06T13:01:19.161Z,19.70
2019-04-06T13:06:48.835Z,23.15
2019-04-06T13:12:15.895Z,28.95
2019-04-06T13:17:27.841Z,24.50
2019-04-06T13:22:52.863Z,25.57
2019-04-06T13:28:14.428Z,26.85
2019-04-06T13:33:48.326Z,26.20
2019-04-06T13:39:00.652Z,26.48
2019-04-06T13:44:13.559Z,30.85
2019-04-06T13:49:41.347Z,31.25
2019-04-06T13:55:13.268Z,30.45
2019-04-06T14:00:31.713Z,33.70
2019-04-06T14:05:56.048Z,31.05
2019-04-06T14:11:18.952Z,29.80
2019-04-06T14:16:49.551Z,32.50
2019-04-06T14:22:13.907Z,29.52
2019-04-06T14:27:39.052Z,32.58
2019-04-06T14:33:12.463Z,30.45
2019-04-06T14:38:36.756Z,31.17
2019-04-06T14:43:49.967Z,32.05
2019-04-06T14:49:28.532Z,33.67
2019-04-06T14:54:43.613Z,32.85
2019-04-06T15:00:01.407Z,33.53
2019-04-06T15:05:26.799Z,34.25
2019-04-06T15:11:09.413Z,37.28
2019-04-06T15:16:20.133Z,35.52
2019-04-06T15:21:43.436Z,38.88
2019-04-06T15:27:14.064Z,37.05
2019-04-06T15:32:44.646Z,35.70
2019-04-06T15:37:58.968Z,33.60
2019-04-06T15:43:20.126Z,37.73
2019-04-06T15:48:49.142Z,33.45
2019-04-06T15:54:12.397Z,29.95
2019-04-06T15:59:28.016Z,30.62
2019-04-06T16:04:42.502Z,30.27
2019-04-06T16:10:07.622Z,28.87
2019-04-06T16:15:23.730Z,24.12
2019-04-06T16:20:45.059Z,28.52
2019-04-06T16:26:04.977Z,27.55
2019-04-06T16:31:32.036Z,28.65
2019-04-06T16:37:02.490Z,23.42
2019-04-06T16:42:29.493Z,22.27
2019-04-06T16:47:56.384Z,18.67
2019-04-06T16:53:20.294Z,22.65
2019-04-06T16:58:42.757Z,22.85
2019-04-06T17:03:57.824Z,22.80
2019-04-06T17:09:23.200Z,21.30
2019-04-06T17:14:52.886Z,24.50
2019-04-06T17:20:11.676Z,22.87
2019-04-06T17:25:54.639Z,22.35
2019-04-06T17:31:24.658Z,20.45
2019-04-06T17:36:41.531Z,19.32
2019-04-06T17:42:09.879Z,19.10
2019-04-06T17:47:33.658Z,22.02
2019-04-06T17:52:56.658Z,23.00
2019-04-06T17:58:20.962Z,22.77
2019-04-06T18:03:40.723Z,22.10
2019-04-06T18:09:05.839Z,21.80
2019-04-06T18:14:11.757Z,21.75
2019-04-06T18:19:17.237Z,21.45
2019-04-06T18:24:23.415Z,18.65
2019-04-06T18:29:28.703Z,22.58
2019-04-06T18:34:33.996Z,21.02
2019-04-06T18:39:39.622Z,26.97
2019-04-06T18:44:44.899Z,23.35
2019-04-06T18:49:50.308Z,22.07
2019-04-06T18:54:55.576Z,24.20
2019-04-06T19:00:00.906Z,25.52
2019-04-06T19:05:07.803Z,23.60
2019-04-06T19:10:13.889Z,24.50
2019-04-06T19:15:19.156Z,24.55
2019-04-06T19:20:25.025Z,27.05
2019-04-06T19:25:30.738Z,29.30
2019-04-06T19:30:36.322Z,25.45
2019-04-06T19:35:41.883Z,29.75
2019-04-06T19:40:47.304Z,27.77
2019-04-06T19:45:53.146Z,25.08
2019-04-06T19:50:58.973Z,24.92
2019-04-06T19:56:04.728Z,26.17
2019-04-06T20:01:10.467Z,22.48
2019-04-06T20:06:16.672Z,23.52
2019-04-06T20:11:22.820Z,24.65
2019-04-06T20:16:28.412Z,28.87
2019-04-06T20:21:34.106Z,24.98
2019-04-06T20:26:40.174Z,27.65
2019-04-06T20:31:45.465Z,26.73
2019-04-06T20:36:51.544Z,26.05
2019-04-06T20:41:57.502Z,27.27
2019-04-06T20:47:04.167Z,25.90
2019-04-06T20:52:09.690Z,25.43
2019-04-06T20:57:16.542Z,24.63
2019-04-06T21:02:22.652Z,28.23
2019-04-06T21:07:28.542Z,26.65
2019-04-06T21:12:34.338Z,27.17
2019-04-06T21:17:39.862Z,26.42
2019-04-06T21:22:45.368Z,25.75
2019-04-06T21:27:51.394Z,27.25
2019-04-06T21:32:57.861Z,26.55
2019-04-06T21:38:03.943Z,25.17
2019-04-06T21:43:10.008Z,25.40
2019-04-06T21:48:16.027Z,24.45
2019-04-06T21:53:21.538Z,24.27
2019-04-06T21:58:27.165Z,24.77
2019-04-06T22:03:32.741Z,23.70
2019-04-06T22:08:38.522Z,23.35
2019-04-06T22:13:44.264Z,24.60
2019-04-06T22:18:49.825Z,23.60
2019-04-06T22:23:56.623Z,24.05
2019-04-06T22:29:02.685Z,24.05
2019-04-06T22:34:08.154Z,24.05
2019-04-06T22:39:14.597Z,21.90
2019-04-06T22:44:19.865Z,22.35
2019-04-06T22:49:25.252Z,23.22
2019-04-06T22:54:30.537Z,22.65
2019-04-06T22:59:36.723Z,21.90
2019-04-06T23:04:55.159Z,25.27
2019-04-06T23:10:01.063Z,22.75
2019-04-06T23:15:07.159Z,21.30
2019-04-06T23:20:12.431Z,20.23
2019-04-06T23:25:18.696Z,20.52
2019-04-06T23:30:24.883Z,19.40
2019-04-06T23:35:31.554Z,18.73
2019-04-06T23:40:36.826Z,17.80
2019-04-06T23:45:42.542Z,17.90
2019-04-06T23:50:48.358Z,19.77
2019-04-06T23:55:54.098Z,19.15
